sensor_id;sensor_type;location;lat;lon;timestamp;P1;durP1;ratioP1;P2;durP2;ratioP2
19280;SDS011;9774;52.034;5.342;2023-02-26T00:01:35;2.30;;;1.38;;
19280;SDS011;9774;52.034;5.342;2023-02-26T00:04:03;3.33;;;1.88;;
19280;SDS011;9774;52.034;5.342;2023-02-26T00:06:32;5.18;;;2.00;;
19280;SDS011;9774;52.034;5.342;2023-02-26T00:09:02;5.75;;;1.38;;
19280;SDS011;9774;52.034;5.342;2023-02-26T00:11:30;3.60;;;1.67;;
19280;SDS011;9774;52.034;5.342;2023-02-26T00:13:59;3.00;;;1.38;;
19280;SDS011;9774;52.034;5.342;2023-02-26T00:16:28;3.45;;;1.42;;
19280;SDS011;9774;52.034;5.342;2023-02-26T00:18:57;2.20;;;1.23;;
19280;SDS011;9774;52.034;5.342;2023-02-26T00:21:26;3.40;;;1.60;;
19280;SDS011;9774;52.034;5.342;2023-02-26T00:23:55;1.67;;;0.90;;
19280;SDS011;9774;52.034;5.342;2023-02-26T00:26:24;2.38;;;0.90;;
19280;SDS011;9774;52.034;5.342;2023-02-26T00:28:53;1.23;;;0.70;;
19280;SDS011;9774;52.034;5.342;2023-02-26T00:31:23;1.90;;;0.70;;
19280;SDS011;9774;52.034;5.342;2023-02-26T00:33:51;2.95;;;0.80;;
19280;SDS011;9774;52.034;5.342;2023-02-26T00:36:20;3.33;;;0.90;;
19280;SDS011;9774;52.034;5.342;2023-02-26T00:38:54;3.13;;;1.00;;
19280;SDS011;9774;52.034;5.342;2023-02-26T00:41:31;2.63;;;0.70;;
19280;SDS011;9774;52.034;5.342;2023-02-26T00:44:00;2.78;;;0.70;;
19280;SDS011;9774;52.034;5.342;2023-02-26T00:46:33;2.35;;;0.57;;
19280;SDS011;9774;52.034;5.342;2023-02-26T00:49:07;2.70;;;0.50;;
19280;SDS011;9774;52.034;5.342;2023-02-26T00:51:43;1.55;;;0.50;;
19280;SDS011;9774;52.034;5.342;2023-02-26T00:54:17;0.90;;;0.60;;
19280;SDS011;9774;52.034;5.342;2023-02-26T00:56:46;1.50;;;0.52;;
19280;SDS011;9774;52.034;5.342;2023-02-26T00:59:14;0.60;;;0.32;;
19280;SDS011;9774;52.034;5.342;2023-02-26T01:01:43;0.82;;;0.40;;
19280;SDS011;9774;52.034;5.342;2023-02-26T01:04:11;0.95;;;0.40;;
19280;SDS011;9774;52.034;5.342;2023-02-26T01:06:41;1.40;;;0.70;;
19280;SDS011;9774;52.034;5.342;2023-02-26T01:09:13;0.80;;;0.20;;
19280;SDS011;9774;52.034;5.342;2023-02-26T01:11:47;0.77;;;0.25;;
19280;SDS011;9774;52.034;5.342;2023-02-26T01:14:15;1.73;;;0.75;;
19280;SDS011;9774;52.034;5.342;2023-02-26T01:16:46;2.15;;;0.30;;
19280;SDS011;9774;52.034;5.342;2023-02-26T01:19:20;2.15;;;0.68;;
19280;SDS011;9774;52.034;5.342;2023-02-26T01:21:55;1.35;;;0.40;;
19280;SDS011;9774;52.034;5.342;2023-02-26T01:24:29;2.33;;;0.50;;
19280;SDS011;9774;52.034;5.342;2023-02-26T01:26:59;1.58;;;0.52;;
19280;SDS011;9774;52.034;5.342;2023-02-26T01:29:27;2.47;;;0.45;;
19280;SDS011;9774;52.034;5.342;2023-02-26T01:31:58;2.08;;;0.40;;
19280;SDS011;9774;52.034;5.342;2023-02-26T01:34:31;1.77;;;0.38;;
19280;SDS011;9774;52.034;5.342;2023-02-26T01:37:07;2.92;;;0.60;;
19280;SDS011;9774;52.034;5.342;2023-02-26T01:39:43;0.93;;;0.40;;
19280;SDS011;9774;52.034;5.342;2023-02-26T01:42:14;2.03;;;0.43;;
19280;SDS011;9774;52.034;5.342;2023-02-26T01:44:48;2.00;;;0.45;;
19280;SDS011;9774;52.034;5.342;2023-02-26T01:47:24;1.90;;;0.63;;
19280;SDS011;9774;52.034;5.342;2023-02-26T01:50:00;4.10;;;0.63;;
19280;SDS011;9774;52.034;5.342;2023-02-26T01:55:40;0.70;;;0.28;;
19280;SDS011;9774;52.034;5.342;2023-02-26T01:58:08;2.22;;;0.30;;
19280;SDS011;9774;52.034;5.342;2023-02-26T02:00:36;1.45;;;0.35;;
19280;SDS011;9774;52.034;5.342;2023-02-26T02:03:05;1.70;;;0.30;;
19280;SDS011;9774;52.034;5.342;2023-02-26T02:05:33;2.95;;;0.30;;
19280;SDS011;9774;52.034;5.342;2023-02-26T02:08:06;1.00;;;0.45;;
19280;SDS011;9774;52.034;5.342;2023-02-26T02:10:34;3.05;;;0.50;;
19280;SDS011;9774;52.034;5.342;2023-02-26T02:13:02;1.30;;;0.60;;
19280;SDS011;9774;52.034;5.342;2023-02-26T02:15:41;5.35;;;0.60;;
19280;SDS011;9774;52.034;5.342;2023-02-26T02:18:16;3.33;;;0.50;;
19280;SDS011;9774;52.034;5.342;2023-02-26T02:21:13;2.08;;;0.40;;
19280;SDS011;9774;52.034;5.342;2023-02-26T02:23:55;5.95;;;0.85;;
19280;SDS011;9774;52.034;5.342;2023-02-26T02:26:42;2.20;;;0.73;;
19280;SDS011;9774;52.034;5.342;2023-02-26T02:29:31;5.20;;;0.47;;
19280;SDS011;9774;52.034;5.342;2023-02-26T02:32:20;1.75;;;0.52;;
19280;SDS011;9774;52.034;5.342;2023-02-26T02:34:51;1.48;;;0.50;;
19280;SDS011;9774;52.034;5.342;2023-02-26T02:37:24;1.45;;;0.40;;
19280;SDS011;9774;52.034;5.342;2023-02-26T02:39:56;1.70;;;0.60;;
19280;SDS011;9774;52.034;5.342;2023-02-26T02:42:27;1.95;;;0.50;;
19280;SDS011;9774;52.034;5.342;2023-02-26T02:44:58;1.35;;;0.38;;
19280;SDS011;9774;52.034;5.342;2023-02-26T02:47:34;0.90;;;0.40;;
19280;SDS011;9774;52.034;5.342;2023-02-26T02:50:06;2.10;;;0.30;;
19280;SDS011;9774;52.034;5.342;2023-02-26T02:52:38;1.83;;;0.30;;
19280;SDS011;9774;52.034;5.342;2023-02-26T02:55:10;1.17;;;0.32;;
19280;SDS011;9774;52.034;5.342;2023-02-26T02:57:42;1.02;;;0.30;;
19280;SDS011;9774;52.034;5.342;2023-02-26T03:00:14;0.98;;;0.52;;
19280;SDS011;9774;52.034;5.342;2023-02-26T03:02:48;1.58;;;0.43;;
19280;SDS011;9774;52.034;5.342;2023-02-26T03:05:20;1.75;;;0.43;;
19280;SDS011;9774;52.034;5.342;2023-02-26T03:07:49;2.72;;;0.47;;
19280;SDS011;9774;52.034;5.342;2023-02-26T03:10:19;1.02;;;0.20;;
19280;SDS011;9774;52.034;5.342;2023-02-26T03:12:46;0.70;;;0.40;;
19280;SDS011;9774;52.034;5.342;2023-02-26T03:15:14;0.77;;;0.30;;
19280;SDS011;9774;52.034;5.342;2023-02-26T03:17:53;2.28;;;0.50;;
19280;SDS011;9774;52.034;5.342;2023-02-26T03:20:26;1.48;;;0.22;;
19280;SDS011;9774;52.034;5.342;2023-02-26T03:23:00;3.22;;;0.40;;
19280;SDS011;9774;52.034;5.342;2023-02-26T03:25:37;1.45;;;0.30;;
19280;SDS011;9774;52.034;5.342;2023-02-26T03:28:11;1.25;;;0.30;;
19280;SDS011;9774;52.034;5.342;2023-02-26T03:30:46;1.38;;;0.30;;
19280;SDS011;9774;52.034;5.342;2023-02-26T03:33:21;0.50;;;0.20;;
19280;SDS011;9774;52.034;5.342;2023-02-26T03:35:52;1.15;;;0.32;;
19280;SDS011;9774;52.034;5.342;2023-02-26T03:38:31;1.05;;;0.30;;
19280;SDS011;9774;52.034;5.342;2023-02-26T03:41:03;1.13;;;0.13;;
19280;SDS011;9774;52.034;5.342;2023-02-26T03:43:36;5.00;;;0.50;;
19280;SDS011;9774;52.034;5.342;2023-02-26T03:46:09;0.60;;;0.35;;
19280;SDS011;9774;52.034;5.342;2023-02-26T03:48:42;2.38;;;0.47;;
19280;SDS011;9774;52.034;5.342;2023-02-26T03:51:11;1.75;;;0.50;;
19280;SDS011;9774;52.034;5.342;2023-02-26T03:53:42;3.03;;;0.88;;
19280;SDS011;9774;52.034;5.342;2023-02-26T03:56:14;2.15;;;0.20;;
19280;SDS011;9774;52.034;5.342;2023-02-26T03:58:45;1.27;;;0.45;;
19280;SDS011;9774;52.034;5.342;2023-02-26T04:01:13;2.05;;;0.28;;
19280;SDS011;9774;52.034;5.342;2023-02-26T04:03:47;1.58;;;0.40;;
19280;SDS011;9774;52.034;5.342;2023-02-26T04:06:17;1.25;;;0.65;;
19280;SDS011;9774;52.034;5.342;2023-02-26T04:08:45;3.20;;;0.40;;
19280;SDS011;9774;52.034;5.342;2023-02-26T04:11:14;2.17;;;0.40;;
19280;SDS011;9774;52.034;5.342;2023-02-26T04:13:44;1.67;;;0.15;;
19280;SDS011;9774;52.034;5.342;2023-02-26T04:16:11;0.52;;;0.20;;
19280;SDS011;9774;52.034;5.342;2023-02-26T04:18:39;1.10;;;0.20;;
19280;SDS011;9774;52.034;5.342;2023-02-26T04:21:10;0.22;;;0.20;;
19280;SDS011;9774;52.034;5.342;2023-02-26T04:23:38;0.60;;;0.20;;
19280;SDS011;9774;52.034;5.342;2023-02-26T04:26:06;2.17;;;0.10;;
19280;SDS011;9774;52.034;5.342;2023-02-26T04:28:33;0.40;;;0.20;;
19280;SDS011;9774;52.034;5.342;2023-02-26T04:31:02;0.85;;;0.30;;
19280;SDS011;9774;52.034;5.342;2023-02-26T04:33:29;0.90;;;0.32;;
19280;SDS011;9774;52.034;5.342;2023-02-26T04:35:57;1.73;;;0.20;;
19280;SDS011;9774;52.034;5.342;2023-02-26T04:38:26;2.10;;;0.30;;
19280;SDS011;9774;52.034;5.342;2023-02-26T04:40:53;1.00;;;0.20;;
19280;SDS011;9774;52.034;5.342;2023-02-26T04:43:21;2.05;;;0.20;;
19280;SDS011;9774;52.034;5.342;2023-02-26T04:45:49;1.35;;;0.25;;
19280;SDS011;9774;52.034;5.342;2023-02-26T04:48:17;1.48;;;0.40;;
19280;SDS011;9774;52.034;5.342;2023-02-26T04:50:45;1.05;;;0.20;;
19280;SDS011;9774;52.034;5.342;2023-02-26T04:53:12;1.42;;;0.38;;
19280;SDS011;9774;52.034;5.342;2023-02-26T04:55:41;3.70;;;0.30;;
19280;SDS011;9774;52.034;5.342;2023-02-26T04:58:08;0.82;;;0.17;;
19280;SDS011;9774;52.034;5.342;2023-02-26T05:00:35;1.55;;;0.13;;
19280;SDS011;9774;52.034;5.342;2023-02-26T05:03:03;3.58;;;0.15;;
19280;SDS011;9774;52.034;5.342;2023-02-26T05:05:31;0.40;;;0.20;;
19280;SDS011;9774;52.034;5.342;2023-02-26T05:07:58;1.25;;;0.10;;
19280;SDS011;9774;52.034;5.342;2023-02-26T05:10:25;1.80;;;0.20;;
19280;SDS011;9774;52.034;5.342;2023-02-26T05:12:54;0.32;;;0.10;;
19280;SDS011;9774;52.034;5.342;2023-02-26T05:15:21;0.47;;;0.20;;
19280;SDS011;9774;52.034;5.342;2023-02-26T05:17:48;0.70;;;0.40;;
19280;SDS011;9774;52.034;5.342;2023-02-26T05:20:16;0.68;;;0.30;;
19280;SDS011;9774;52.034;5.342;2023-02-26T05:22:43;0.32;;;0.10;;
19280;SDS011;9774;52.034;5.342;2023-02-26T05:25:11;2.78;;;0.45;;
19280;SDS011;9774;52.034;5.342;2023-02-26T05:27:38;0.98;;;0.47;;
19280;SDS011;9774;52.034;5.342;2023-02-26T05:30:09;1.02;;;0.17;;
19280;SDS011;9774;52.034;5.342;2023-02-26T05:32:39;3.22;;;0.60;;
19280;SDS011;9774;52.034;5.342;2023-02-26T05:35:07;1.20;;;0.17;;
19280;SDS011;9774;52.034;5.342;2023-02-26T05:37:35;0.90;;;0.30;;
19280;SDS011;9774;52.034;5.342;2023-02-26T05:40:05;2.42;;;0.45;;
19280;SDS011;9774;52.034;5.342;2023-02-26T05:42:34;1.17;;;0.32;;
19280;SDS011;9774;52.034;5.342;2023-02-26T05:45:02;1.52;;;0.32;;
19280;SDS011;9774;52.034;5.342;2023-02-26T05:47:32;1.67;;;0.30;;
19280;SDS011;9774;52.034;5.342;2023-02-26T05:49:59;2.35;;;0.50;;
19280;SDS011;9774;52.034;5.342;2023-02-26T05:52:27;0.38;;;0.17;;
19280;SDS011;9774;52.034;5.342;2023-02-26T05:54:54;0.98;;;0.10;;
19280;SDS011;9774;52.034;5.342;2023-02-26T05:57:21;1.27;;;0.50;;
19280;SDS011;9774;52.034;5.342;2023-02-26T05:59:49;1.52;;;0.40;;
19280;SDS011;9774;52.034;5.342;2023-02-26T06:02:17;3.28;;;0.40;;
19280;SDS011;9774;52.034;5.342;2023-02-26T06:04:46;0.57;;;0.28;;
19280;SDS011;9774;52.034;5.342;2023-02-26T06:07:13;1.13;;;0.30;;
19280;SDS011;9774;52.034;5.342;2023-02-26T06:09:40;0.90;;;0.10;;
19280;SDS011;9774;52.034;5.342;2023-02-26T06:12:08;2.40;;;0.57;;
19280;SDS011;9774;52.034;5.342;2023-02-26T06:14:35;1.80;;;0.20;;
19280;SDS011;9774;52.034;5.342;2023-02-26T06:17:02;2.70;;;0.50;;
19280;SDS011;9774;52.034;5.342;2023-02-26T06:19:30;0.93;;;0.30;;
19280;SDS011;9774;52.034;5.342;2023-02-26T06:21:59;2.92;;;0.40;;
19280;SDS011;9774;52.034;5.342;2023-02-26T06:24:27;4.53;;;0.30;;
19280;SDS011;9774;52.034;5.342;2023-02-26T06:26:54;0.95;;;0.40;;
19280;SDS011;9774;52.034;5.342;2023-02-26T06:29:21;0.35;;;0.20;;
19280;SDS011;9774;52.034;5.342;2023-02-26T06:31:49;1.10;;;0.35;;
19280;SDS011;9774;52.034;5.342;2023-02-26T06:34:16;1.65;;;0.38;;
19280;SDS011;9774;52.034;5.342;2023-02-26T06:36:43;0.50;;;0.10;;
19280;SDS011;9774;52.034;5.342;2023-02-26T06:39:12;2.42;;;0.38;;
19280;SDS011;9774;52.034;5.342;2023-02-26T06:41:39;0.82;;;0.40;;
19280;SDS011;9774;52.034;5.342;2023-02-26T06:44:07;0.90;;;0.40;;
19280;SDS011;9774;52.034;5.342;2023-02-26T06:46:34;2.08;;;0.25;;
19280;SDS011;9774;52.034;5.342;2023-02-26T06:49:02;5.63;;;0.73;;
19280;SDS011;9774;52.034;5.342;2023-02-26T06:51:29;1.02;;;0.20;;
19280;SDS011;9774;52.034;5.342;2023-02-26T06:53:57;0.57;;;0.20;;
19280;SDS011;9774;52.034;5.342;2023-02-26T06:56:25;1.30;;;0.43;;
19280;SDS011;9774;52.034;5.342;2023-02-26T06:58:54;1.58;;;0.25;;
19280;SDS011;9774;52.034;5.342;2023-02-26T07:01:22;1.23;;;0.20;;
19280;SDS011;9774;52.034;5.342;2023-02-26T07:03:49;0.47;;;0.10;;
19280;SDS011;9774;52.034;5.342;2023-02-26T07:06:17;1.83;;;0.25;;
19280;SDS011;9774;52.034;5.342;2023-02-26T07:08:45;1.92;;;0.35;;
19280;SDS011;9774;52.034;5.342;2023-02-26T07:11:12;1.65;;;0.30;;
19280;SDS011;9774;52.034;5.342;2023-02-26T07:13:41;2.00;;;0.55;;
19280;SDS011;9774;52.034;5.342;2023-02-26T07:16:08;1.23;;;0.50;;
19280;SDS011;9774;52.034;5.342;2023-02-26T07:18:36;4.32;;;0.60;;
19280;SDS011;9774;52.034;5.342;2023-02-26T07:21:04;0.65;;;0.30;;
19280;SDS011;9774;52.034;5.342;2023-02-26T07:23:31;0.82;;;0.32;;
19280;SDS011;9774;52.034;5.342;2023-02-26T07:25:59;1.38;;;0.30;;
19280;SDS011;9774;52.034;5.342;2023-02-26T07:28:26;0.50;;;0.20;;
19280;SDS011;9774;52.034;5.342;2023-02-26T07:30:55;1.55;;;0.45;;
19280;SDS011;9774;52.034;5.342;2023-02-26T07:33:25;0.77;;;0.30;;
19280;SDS011;9774;52.034;5.342;2023-02-26T07:35:52;2.20;;;0.75;;
19280;SDS011;9774;52.034;5.342;2023-02-26T07:38:20;2.50;;;0.68;;
19280;SDS011;9774;52.034;5.342;2023-02-26T07:40:47;2.13;;;0.65;;
19280;SDS011;9774;52.034;5.342;2023-02-26T07:43:14;3.85;;;0.55;;
19280;SDS011;9774;52.034;5.342;2023-02-26T07:45:43;9.45;;;0.52;;
19280;SDS011;9774;52.034;5.342;2023-02-26T07:48:12;1.10;;;0.17;;
19280;SDS011;9774;52.034;5.342;2023-02-26T07:50:40;1.02;;;0.35;;
19280;SDS011;9774;52.034;5.342;2023-02-26T07:53:07;1.52;;;0.47;;
19280;SDS011;9774;52.034;5.342;2023-02-26T07:55:34;2.75;;;0.65;;
19280;SDS011;9774;52.034;5.342;2023-02-26T07:58:01;0.82;;;0.30;;
19280;SDS011;9774;52.034;5.342;2023-02-26T08:00:31;2.05;;;0.45;;
19280;SDS011;9774;52.034;5.342;2023-02-26T08:02:59;3.83;;;0.63;;
19280;SDS011;9774;52.034;5.342;2023-02-26T08:05:27;2.95;;;0.35;;
19280;SDS011;9774;52.034;5.342;2023-02-26T08:07:55;0.88;;;0.30;;
19280;SDS011;9774;52.034;5.342;2023-02-26T08:10:22;2.47;;;0.40;;
19280;SDS011;9774;52.034;5.342;2023-02-26T08:12:50;1.15;;;0.55;;
19280;SDS011;9774;52.034;5.342;2023-02-26T08:15:17;2.17;;;0.50;;
19280;SDS011;9774;52.034;5.342;2023-02-26T08:17:50;2.42;;;0.32;;
19280;SDS011;9774;52.034;5.342;2023-02-26T08:20:18;3.33;;;0.68;;
19280;SDS011;9774;52.034;5.342;2023-02-26T08:22:47;1.80;;;0.40;;
19280;SDS011;9774;52.034;5.342;2023-02-26T08:25:15;1.10;;;0.32;;
19280;SDS011;9774;52.034;5.342;2023-02-26T08:27:43;0.75;;;0.30;;
19280;SDS011;9774;52.034;5.342;2023-02-26T08:30:10;1.40;;;0.30;;
19280;SDS011;9774;52.034;5.342;2023-02-26T08:32:39;1.67;;;0.68;;
19280;SDS011;9774;52.034;5.342;2023-02-26T08:35:06;1.27;;;0.35;;
19280;SDS011;9774;52.034;5.342;2023-02-26T08:37:34;0.60;;;0.30;;
19280;SDS011;9774;52.034;5.342;2023-02-26T08:40:04;2.55;;;0.50;;
19280;SDS011;9774;52.034;5.342;2023-02-26T08:42:33;1.02;;;0.50;;
19280;SDS011;9774;52.034;5.342;2023-02-26T08:45:00;2.25;;;0.40;;
19280;SDS011;9774;52.034;5.342;2023-02-26T08:47:28;1.95;;;0.40;;
19280;SDS011;9774;52.034;5.342;2023-02-26T08:49:55;0.82;;;0.28;;
19280;SDS011;9774;52.034;5.342;2023-02-26T08:52:23;1.42;;;0.35;;
19280;SDS011;9774;52.034;5.342;2023-02-26T08:54:50;1.95;;;0.38;;
19280;SDS011;9774;52.034;5.342;2023-02-26T08:57:19;2.55;;;0.30;;
19280;SDS011;9774;52.034;5.342;2023-02-26T08:59:47;3.35;;;0.70;;
19280;SDS011;9774;52.034;5.342;2023-02-26T09:02:14;0.80;;;0.40;;
19280;SDS011;9774;52.034;5.342;2023-02-26T09:04:41;0.77;;;0.40;;
19280;SDS011;9774;52.034;5.342;2023-02-26T09:07:09;1.70;;;0.55;;
19280;SDS011;9774;52.034;5.342;2023-02-26T09:09:36;1.92;;;0.60;;
19280;SDS011;9774;52.034;5.342;2023-02-26T09:12:04;0.60;;;0.20;;
19280;SDS011;9774;52.034;5.342;2023-02-26T09:14:32;2.15;;;0.57;;
19280;SDS011;9774;52.034;5.342;2023-02-26T09:17:00;1.77;;;0.40;;
19280;SDS011;9774;52.034;5.342;2023-02-26T09:19:27;1.95;;;0.40;;
19280;SDS011;9774;52.034;5.342;2023-02-26T09:21:54;1.27;;;0.30;;
19280;SDS011;9774;52.034;5.342;2023-02-26T09:24:21;0.38;;;0.17;;
19280;SDS011;9774;52.034;5.342;2023-02-26T09:26:49;1.30;;;0.40;;
19280;SDS011;9774;52.034;5.342;2023-02-26T09:29:16;1.23;;;0.25;;
19280;SDS011;9774;52.034;5.342;2023-02-26T09:31:45;1.35;;;0.30;;
19280;SDS011;9774;52.034;5.342;2023-02-26T09:34:12;3.17;;;0.40;;
19280;SDS011;9774;52.034;5.342;2023-02-26T09:36:39;1.88;;;0.20;;
19280;SDS011;9774;52.034;5.342;2023-02-26T09:39:07;3.25;;;0.40;;
19280;SDS011;9774;52.034;5.342;2023-02-26T09:41:36;1.45;;;0.30;;
19280;SDS011;9774;52.034;5.342;2023-02-26T09:44:11;0.22;;;0.10;;
19280;SDS011;9774;52.034;5.342;2023-02-26T09:46:49;1.20;;;0.47;;
19280;SDS011;9774;52.034;5.342;2023-02-26T09:49:24;1.75;;;0.32;;
19280;SDS011;9774;52.034;5.342;2023-02-26T09:51:59;1.38;;;0.35;;
19280;SDS011;9774;52.034;5.342;2023-02-26T09:54:35;0.45;;;0.17;;
19280;SDS011;9774;52.034;5.342;2023-02-26T09:57:09;1.45;;;0.30;;
19280;SDS011;9774;52.034;5.342;2023-02-26T09:59:40;0.80;;;0.20;;
19280;SDS011;9774;52.034;5.342;2023-02-26T10:02:11;2.20;;;0.52;;
19280;SDS011;9774;52.034;5.342;2023-02-26T10:04:48;1.58;;;0.30;;
19280;SDS011;9774;52.034;5.342;2023-02-26T10:07:23;1.48;;;0.45;;
19280;SDS011;9774;52.034;5.342;2023-02-26T10:10:09;0.55;;;0.20;;
19280;SDS011;9774;52.034;5.342;2023-02-26T10:12:43;1.13;;;0.20;;
19280;SDS011;9774;52.034;5.342;2023-02-26T10:15:12;0.60;;;0.10;;
19280;SDS011;9774;52.034;5.342;2023-02-26T10:17:48;1.50;;;0.30;;
19280;SDS011;9774;52.034;5.342;2023-02-26T10:20:33;0.70;;;0.10;;
19280;SDS011;9774;52.034;5.342;2023-02-26T10:23:06;1.20;;;0.30;;
19280;SDS011;9774;52.034;5.342;2023-02-26T10:25:43;1.95;;;0.40;;
19280;SDS011;9774;52.034;5.342;2023-02-26T10:28:22;0.22;;;0.10;;
19280;SDS011;9774;52.034;5.342;2023-02-26T10:31:08;1.35;;;0.43;;
19280;SDS011;9774;52.034;5.342;2023-02-26T10:33:45;0.63;;;0.28;;
19280;SDS011;9774;52.034;5.342;2023-02-26T10:36:24;2.67;;;0.28;;
19280;SDS011;9774;52.034;5.342;2023-02-26T10:39:00;0.35;;;0.20;;
19280;SDS011;9774;52.034;5.342;2023-02-26T10:41:29;0.60;;;0.10;;
19280;SDS011;9774;52.034;5.342;2023-02-26T10:44:00;0.38;;;0.17;;
19280;SDS011;9774;52.034;5.342;2023-02-26T10:46:36;1.17;;;0.30;;
19280;SDS011;9774;52.034;5.342;2023-02-26T10:49:19;0.60;;;0.20;;
19280;SDS011;9774;52.034;5.342;2023-02-26T10:52:04;0.45;;;0.10;;
19280;SDS011;9774;52.034;5.342;2023-02-26T10:54:38;0.43;;;0.17;;
19280;SDS011;9774;52.034;5.342;2023-02-26T10:57:13;1.13;;;0.60;;
19280;SDS011;9774;52.034;5.342;2023-02-26T10:59:45;0.82;;;0.20;;
19280;SDS011;9774;52.034;5.342;2023-02-26T11:02:22;1.45;;;0.30;;
19280;SDS011;9774;52.034;5.342;2023-02-26T11:05:00;0.63;;;0.20;;
19280;SDS011;9774;52.034;5.342;2023-02-26T11:07:28;0.70;;;0.25;;
19280;SDS011;9774;52.034;5.342;2023-02-26T11:09:57;0.88;;;0.20;;
19280;SDS011;9774;52.034;5.342;2023-02-26T11:12:25;0.77;;;0.10;;
19280;SDS011;9774;52.034;5.342;2023-02-26T11:14:52;2.33;;;0.20;;
19280;SDS011;9774;52.034;5.342;2023-02-26T11:17:20;1.55;;;0.20;;
19280;SDS011;9774;52.034;5.342;2023-02-26T11:19:52;0.57;;;0.10;;
19280;SDS011;9774;52.034;5.342;2023-02-26T11:22:26;1.23;;;0.20;;
19280;SDS011;9774;52.034;5.342;2023-02-26T11:24:58;1.83;;;0.30;;
19280;SDS011;9774;52.034;5.342;2023-02-26T11:27:29;0.85;;;0.15;;
19280;SDS011;9774;52.034;5.342;2023-02-26T11:30:02;0.93;;;0.20;;
19280;SDS011;9774;52.034;5.342;2023-02-26T11:32:33;0.50;;;0.28;;
19280;SDS011;9774;52.034;5.342;2023-02-26T11:35:01;1.20;;;0.35;;
19280;SDS011;9774;52.034;5.342;2023-02-26T11:37:34;0.93;;;0.30;;
19280;SDS011;9774;52.034;5.342;2023-02-26T11:40:04;1.85;;;0.40;;
19280;SDS011;9774;52.034;5.342;2023-02-26T11:42:40;1.50;;;0.30;;
19280;SDS011;9774;52.034;5.342;2023-02-26T11:45:13;0.60;;;0.20;;
19280;SDS011;9774;52.034;5.342;2023-02-26T11:47:43;1.50;;;0.38;;
19280;SDS011;9774;52.034;5.342;2023-02-26T11:50:13;1.30;;;0.10;;
19280;SDS011;9774;52.034;5.342;2023-02-26T11:52:44;1.08;;;0.20;;
19280;SDS011;9774;52.034;5.342;2023-02-26T11:55:21;3.17;;;0.60;;
19280;SDS011;9774;52.034;5.342;2023-02-26T11:57:54;0.95;;;0.13;;
19280;SDS011;9774;52.034;5.342;2023-02-26T12:00:23;0.28;;;0.10;;
19280;SDS011;9774;52.034;5.342;2023-02-26T12:02:55;1.33;;;0.35;;
19280;SDS011;9774;52.034;5.342;2023-02-26T12:05:26;0.95;;;0.30;;
19280;SDS011;9774;52.034;5.342;2023-02-26T12:07:54;1.40;;;0.20;;
19280;SDS011;9774;52.034;5.342;2023-02-26T12:10:34;0.43;;;0.15;;
19280;SDS011;9774;52.034;5.342;2023-02-26T12:13:08;4.07;;;0.60;;
19280;SDS011;9774;52.034;5.342;2023-02-26T12:15:44;1.63;;;0.13;;
19280;SDS011;9774;52.034;5.342;2023-02-26T12:18:21;1.65;;;0.43;;
19280;SDS011;9774;52.034;5.342;2023-02-26T12:21:13;1.95;;;0.50;;
19280;SDS011;9774;52.034;5.342;2023-02-26T12:24:01;0.70;;;0.30;;
19280;SDS011;9774;52.034;5.342;2023-02-26T12:26:57;1.40;;;0.20;;
19280;SDS011;9774;52.034;5.342;2023-02-26T12:29:36;0.75;;;0.17;;
19280;SDS011;9774;52.034;5.342;2023-02-26T12:32:23;0.35;;;0.13;;
19280;SDS011;9774;52.034;5.342;2023-02-26T12:35:21;0.95;;;0.30;;
19280;SDS011;9774;52.034;5.342;2023-02-26T12:38:07;0.35;;;0.10;;
19280;SDS011;9774;52.034;5.342;2023-02-26T12:40:49;0.80;;;0.10;;
19280;SDS011;9774;52.034;5.342;2023-02-26T12:43:30;0.85;;;0.25;;
19280;SDS011;9774;52.034;5.342;2023-02-26T12:46:07;1.00;;;0.30;;
19280;SDS011;9774;52.034;5.342;2023-02-26T12:51:36;0.57;;;0.20;;
19280;SDS011;9774;52.034;5.342;2023-02-26T12:54:20;0.55;;;0.10;;
19280;SDS011;9774;52.034;5.342;2023-02-26T13:00:19;0.30;;;0.20;;
19280;SDS011;9774;52.034;5.342;2023-02-26T13:03:33;0.17;;;0.13;;
19280;SDS011;9774;52.034;5.342;2023-02-26T13:06:34;1.17;;;0.20;;
19280;SDS011;9774;52.034;5.342;2023-02-26T13:09:14;0.68;;;0.10;;
19280;SDS011;9774;52.034;5.342;2023-02-26T13:12:03;0.95;;;0.20;;
19280;SDS011;9774;52.034;5.342;2023-02-26T13:14:47;0.90;;;0.22;;
19280;SDS011;9774;52.034;5.342;2023-02-26T13:17:23;0.50;;;0.22;;
19280;SDS011;9774;52.034;5.342;2023-02-26T13:19:56;2.13;;;0.47;;
19280;SDS011;9774;52.034;5.342;2023-02-26T13:22:27;0.70;;;0.30;;
19280;SDS011;9774;52.034;5.342;2023-02-26T13:25:00;1.08;;;0.30;;
19280;SDS011;9774;52.034;5.342;2023-02-26T13:27:31;1.70;;;0.30;;
19280;SDS011;9774;52.034;5.342;2023-02-26T13:30:14;1.45;;;0.50;;
19280;SDS011;9774;52.034;5.342;2023-02-26T13:32:46;1.08;;;0.28;;
19280;SDS011;9774;52.034;5.342;2023-02-26T13:35:18;0.30;;;0.17;;
19280;SDS011;9774;52.034;5.342;2023-02-26T13:37:48;0.57;;;0.20;;
19280;SDS011;9774;52.034;5.342;2023-02-26T13:40:24;1.38;;;0.30;;
19280;SDS011;9774;52.034;5.342;2023-02-26T13:43:15;0.50;;;0.10;;
19280;SDS011;9774;52.034;5.342;2023-02-26T13:46:01;1.15;;;0.35;;
19280;SDS011;9774;52.034;5.342;2023-02-26T13:48:47;0.30;;;0.10;;
19280;SDS011;9774;52.034;5.342;2023-02-26T13:51:24;0.50;;;0.15;;
19280;SDS011;9774;52.034;5.342;2023-02-26T13:53:57;0.50;;;0.20;;
19280;SDS011;9774;52.034;5.342;2023-02-26T13:59:34;0.50;;;0.20;;
19280;SDS011;9774;52.034;5.342;2023-02-26T14:08:09;0.57;;;0.20;;
19280;SDS011;9774;52.034;5.342;2023-02-26T14:10:56;0.50;;;0.15;;
19280;SDS011;9774;52.034;5.342;2023-02-26T14:13:32;0.20;;;0.10;;
19280;SDS011;9774;52.034;5.342;2023-02-26T14:16:02;0.47;;;0.28;;
19280;SDS011;9774;52.034;5.342;2023-02-26T14:18:41;0.93;;;0.20;;
19280;SDS011;9774;52.034;5.342;2023-02-26T14:21:35;0.30;;;0.20;;
19280;SDS011;9774;52.034;5.342;2023-02-26T14:24:14;1.35;;;0.28;;
19280;SDS011;9774;52.034;5.342;2023-02-26T14:26:46;0.68;;;0.30;;
19280;SDS011;9774;52.034;5.342;2023-02-26T14:29:16;0.52;;;0.30;;
19280;SDS011;9774;52.034;5.342;2023-02-26T14:31:55;1.00;;;0.55;;
19280;SDS011;9774;52.034;5.342;2023-02-26T14:34:32;1.38;;;0.32;;
19280;SDS011;9774;52.034;5.342;2023-02-26T14:37:03;0.90;;;0.20;;
19280;SDS011;9774;52.034;5.342;2023-02-26T14:39:34;0.47;;;0.20;;
19280;SDS011;9774;52.034;5.342;2023-02-26T14:42:05;0.80;;;0.20;;
19280;SDS011;9774;52.034;5.342;2023-02-26T14:44:36;0.88;;;0.32;;
19280;SDS011;9774;52.034;5.342;2023-02-26T14:47:07;1.85;;;0.40;;
19280;SDS011;9774;52.034;5.342;2023-02-26T14:49:39;0.52;;;0.20;;
19280;SDS011;9774;52.034;5.342;2023-02-26T14:52:12;0.50;;;0.20;;
19280;SDS011;9774;52.034;5.342;2023-02-26T14:55:09;0.65;;;0.35;;
19280;SDS011;9774;52.034;5.342;2023-02-26T14:57:59;2.00;;;0.50;;
19280;SDS011;9774;52.034;5.342;2023-02-26T15:00:38;0.10;;;0.10;;
19280;SDS011;9774;52.034;5.342;2023-02-26T15:03:17;3.55;;;0.28;;
19280;SDS011;9774;52.034;5.342;2023-02-26T15:06:10;0.77;;;0.30;;
19280;SDS011;9774;52.034;5.342;2023-02-26T15:08:52;0.50;;;0.20;;
19280;SDS011;9774;52.034;5.342;2023-02-26T15:11:43;1.48;;;0.30;;
19280;SDS011;9774;52.034;5.342;2023-02-26T15:14:30;2.22;;;0.40;;
19280;SDS011;9774;52.034;5.342;2023-02-26T15:17:10;0.77;;;0.22;;
19280;SDS011;9774;52.034;5.342;2023-02-26T15:19:50;0.73;;;0.30;;
19280;SDS011;9774;52.034;5.342;2023-02-26T15:22:30;3.15;;;0.30;;
19280;SDS011;9774;52.034;5.342;2023-02-26T15:25:14;0.98;;;0.35;;
19280;SDS011;9774;52.034;5.342;2023-02-26T15:27:49;1.23;;;0.22;;
19280;SDS011;9774;52.034;5.342;2023-02-26T15:30:17;0.32;;;0.10;;
19280;SDS011;9774;52.034;5.342;2023-02-26T15:32:44;3.80;;;0.50;;
19280;SDS011;9774;52.034;5.342;2023-02-26T15:35:14;1.75;;;0.25;;
19280;SDS011;9774;52.034;5.342;2023-02-26T15:37:48;1.75;;;0.30;;
19280;SDS011;9774;52.034;5.342;2023-02-26T15:40:18;0.30;;;0.20;;
19280;SDS011;9774;52.034;5.342;2023-02-26T15:42:47;0.77;;;0.30;;
19280;SDS011;9774;52.034;5.342;2023-02-26T15:45:17;1.42;;;0.20;;
19280;SDS011;9774;52.034;5.342;2023-02-26T15:47:50;2.17;;;0.47;;
19280;SDS011;9774;52.034;5.342;2023-02-26T15:50:20;1.50;;;0.77;;